Main page
METAR-TAF:

METAR-TAF

Airports :

Narathiwat Airport

Narathiwat, Thailand

latitude: 6-31-12N, longitude: 101-44-36E, elevation: 5 m

Current weather observation

The report was made 42 minutes ago, at 06:00 UTC
Wind 8 kt from the Northeast
Temperature 29°C
Humidity 79%
Pressure 1010 hPa
Visibility 10 km or more
Few clouds at a height of 2000 ft
Scattered clouds at a height of 7000 ft

METAR: VTSC 270600Z 05008KT 9999 FEW020 SCT070 29/25 Q1010 NOSIG

Time: 13:42 (06:42 UTC)

Forecast

The report was made 1 hour and 42 minutes ago, at 05:00 UTC
Forecast valid from 27 at 06 UTC to 28 at 06 UTC
Wind 10 kt from the East/Northeast
Visibility 10 km or more
Few clouds at a height of 2000 ft
Becoming
from 27 at 14 UTC to 27 at 16 UTC
Wind 4 kt from the South/Southwest
Becoming
from 28 at 03 UTC to 28 at 05 UTC
Wind 10 kt from the East/Northeast

TAF: VTSC 270500Z 2706/2806 07010KT 9999 FEW020 BECMG 2714/2716 20004KT BECMG 2803/2805 07010KT

Weather observations and forecasts of more than 4000 airports (METAR and TAF reports).

The available stations are represented by yellow and red dots on the map.

Hover mouse over dot to see the name of the station.

Then click to see weather observations and forecasts.

To change the map : click on the green buttons with a black cross to zoom in, on the green button with a dash to zoom out, or on the green arrows for adjacent maps.


METAR-TAF: